createdAt,value
2023-01-04T00:03:10.828Z,0.50
2023-01-04T00:08:16.061Z,0.50
2023-01-04T00:13:22.050Z,0.50
2023-01-04T00:18:27.768Z,0.40
2023-01-04T00:23:32.903Z,0.30
2023-01-04T00:28:38.552Z,0.30
2023-01-04T00:33:43.869Z,0.20
2023-01-04T00:38:50.635Z,0.10
2023-01-04T00:43:55.658Z,0.00
2023-01-04T00:49:01.475Z,0.00
2023-01-04T00:54:08.994Z,-0.10
2023-01-04T00:59:16.448Z,-0.10
2023-01-04T01:04:24.440Z,-0.10
2023-01-04T01:09:29.827Z,-0.20
2023-01-04T01:14:34.908Z,-0.30
2023-01-04T01:19:40.102Z,-0.30
2023-01-04T01:24:45.303Z,-0.20
2023-01-04T01:29:50.399Z,-0.30
2023-01-04T01:34:55.712Z,-0.30
2023-01-04T01:40:00.962Z,-0.40
2023-01-04T01:45:10.882Z,-0.50
2023-01-04T01:50:19.418Z,-0.50
2023-01-04T01:55:25.302Z,-0.50
2023-01-04T02:00:31.280Z,-0.60
2023-01-04T02:05:38.084Z,-0.60
2023-01-04T02:10:43.538Z,-0.60
2023-01-04T02:16:03.391Z,-0.60
2023-01-04T02:21:11.645Z,-0.70
2023-01-04T02:26:51.428Z,-0.70
2023-01-04T02:31:59.630Z,-0.80
2023-01-04T02:37:08.382Z,-0.80
2023-01-04T02:42:22.246Z,-0.80
2023-01-04T02:47:55.988Z,-0.80
2023-01-04T02:53:12.962Z,-0.80
2023-01-04T02:58:28.503Z,-0.90
2023-01-04T03:03:54.483Z,-0.90
2023-01-04T03:09:11.772Z,-0.90
2023-01-04T03:14:30.865Z,-0.80
2023-01-04T03:19:49.320Z,-0.80
2023-01-04T03:25:13.224Z,-0.80
2023-01-04T03:30:38.107Z,-0.90
2023-01-04T03:35:52.299Z,-0.80
2023-01-04T03:41:20.998Z,-0.80
2023-01-04T03:46:58.817Z,-0.80
2023-01-04T03:52:06.404Z,-0.80
2023-01-04T03:57:13.765Z,-0.80
2023-01-04T04:02:22.453Z,-0.80
2023-01-04T04:07:45.556Z,-0.80
2023-01-04T04:12:52.485Z,-0.70
2023-01-04T04:17:57.625Z,-0.80
2023-01-04T04:23:02.901Z,-0.70
2023-01-04T04:28:08.049Z,-0.80
2023-01-04T04:33:13.245Z,-0.80
2023-01-04T04:38:18.631Z,-0.70
2023-01-04T04:43:23.755Z,-0.60
2023-01-04T04:48:29.085Z,-0.50
2023-01-04T04:53:34.283Z,-0.50
2023-01-04T04:58:39.794Z,-0.50
2023-01-04T05:03:45.646Z,-0.50
2023-01-04T05:08:51.225Z,-0.50
2023-01-04T05:13:56.338Z,-0.40
2023-01-04T05:19:01.503Z,-0.40
2023-01-04T05:24:07.467Z,-0.40
2023-01-04T05:29:14.544Z,-0.30
2023-01-04T05:34:22.310Z,-0.10
2023-01-04T05:39:27.051Z,0.10
2023-01-04T05:44:32.281Z,0.20
2023-01-04T05:49:37.456Z,0.30
2023-01-04T05:54:42.650Z,0.40
2023-01-04T05:59:47.827Z,0.50
2023-01-04T06:04:58.833Z,0.60
2023-01-04T06:10:05.142Z,0.60
2023-01-04T06:15:13.349Z,0.70
2023-01-04T06:20:20.563Z,0.80
2023-01-04T06:25:25.620Z,0.90
2023-01-04T06:30:38.744Z,1.00
2023-01-04T06:35:50.375Z,1.10
2023-01-04T06:40:57.514Z,1.10
2023-01-04T06:46:05.102Z,1.10
2023-01-04T06:51:11.621Z,1.20
2023-01-04T06:56:17.137Z,1.20
2023-01-04T07:01:22.264Z,1.10
2023-01-04T07:06:27.926Z,1.20
2023-01-04T07:11:33.131Z,1.20
2023-01-04T07:16:38.477Z,1.30
2023-01-04T07:21:45.279Z,1.40
2023-01-04T07:26:50.420Z,1.30
2023-01-04T07:31:57.357Z,1.30
2023-01-04T07:37:02.699Z,1.40
2023-01-04T07:42:09.058Z,1.40
2023-01-04T07:47:14.847Z,1.60
2023-01-04T07:52:20.046Z,1.80
2023-01-04T07:57:25.164Z,1.80
2023-01-04T08:02:30.530Z,1.80
2023-01-04T08:07:36.240Z,1.90
2023-01-04T08:12:41.452Z,2.10
2023-01-04T08:17:46.786Z,2.20
2023-01-04T08:22:51.991Z,2.40
2023-01-04T08:27:58.677Z,2.40
2023-01-04T08:33:03.945Z,2.70
2023-01-04T08:38:55.674Z,2.90
2023-01-04T08:43:18.295Z,2.80
2023-01-04T08:48:24.794Z,2.90
2023-01-04T08:53:31.711Z,3.10
2023-01-04T08:58:38.633Z,3.20
2023-01-04T09:03:43.877Z,3.30
2023-01-04T09:08:49.515Z,3.40
2023-01-04T09:14:06.702Z,3.50
2023-01-04T09:19:06.761Z,3.60
2023-01-04T09:24:12.296Z,3.70
2023-01-04T09:29:19.331Z,3.70
2023-01-04T09:34:27.745Z,3.70
2023-01-04T09:39:34.607Z,3.70
2023-01-04T09:50:06.393Z,3.80
2023-01-04T09:55:39.768Z,3.90
2023-01-04T10:00:43.747Z,3.90
2023-01-04T10:05:48.667Z,3.90
2023-01-04T10:11:19.949Z,3.90
2023-01-04T10:17:01.834Z,3.90
2023-01-04T10:21:43.449Z,4.00
2023-01-04T10:26:51.226Z,4.00
2023-01-04T10:32:08.848Z,4.00
2023-01-04T10:37:25.537Z,4.00
2023-01-04T10:42:39.362Z,4.00
2023-01-04T10:48:06.983Z,4.00
2023-01-04T10:53:18.109Z,4.10
2023-01-04T10:58:37.950Z,4.20
2023-01-04T11:03:46.340Z,4.20
2023-01-04T11:09:04.088Z,4.20
2023-01-04T11:14:10.515Z,4.30
2023-01-04T11:19:16.165Z,4.30
2023-01-04T11:24:31.830Z,4.30
2023-01-04T11:29:35.057Z,4.50
2023-01-04T11:34:54.920Z,4.50
2023-01-04T11:40:21.385Z,4.60
2023-01-04T11:45:29.197Z,4.60
2023-01-04T11:50:46.396Z,4.60
2023-01-04T11:55:52.779Z,4.70
2023-01-04T12:01:00.231Z,4.70
2023-01-04T12:06:21.753Z,4.70
2023-01-04T12:11:38.888Z,4.80
2023-01-04T12:16:53.755Z,4.80
2023-01-04T12:22:02.159Z,4.90
2023-01-04T12:27:10.510Z,5.00
2023-01-04T12:32:19.811Z,5.10
2023-01-04T12:37:44.576Z,5.10
2023-01-04T12:42:53.843Z,5.20
2023-01-04T12:48:16.728Z,5.20
2023-01-04T12:53:53.090Z,5.30
2023-01-04T12:59:25.251Z,5.40
2023-01-04T13:04:33.058Z,5.40
2023-01-04T13:09:46.433Z,5.40
2023-01-04T13:14:51.259Z,5.40
2023-01-04T13:20:01.118Z,5.30
2023-01-04T13:25:09.661Z,5.30
2023-01-04T13:30:35.469Z,5.30
2023-01-04T13:35:41.103Z,5.30
2023-01-04T13:40:49.824Z,5.30
2023-01-04T13:52:06.330Z,5.20
2023-01-04T13:57:11.237Z,5.20
2023-01-04T14:02:24.253Z,5.10
2023-01-04T14:13:33.094Z,5.20
2023-01-04T14:18:42.764Z,5.20
2023-01-04T14:24:15.612Z,5.20
2023-01-04T14:29:35.025Z,5.20
2023-01-04T14:34:49.137Z,5.20
2023-01-04T14:40:04.401Z,5.20
2023-01-04T14:45:18.286Z,5.30
2023-01-04T14:50:23.962Z,5.40
2023-01-04T14:55:31.810Z,5.50
2023-01-04T15:00:42.838Z,5.50
2023-01-04T15:11:23.847Z,5.60
2023-01-04T15:16:38.860Z,5.70
2023-01-04T15:21:47.374Z,5.80
2023-01-04T15:27:03.627Z,5.80
2023-01-04T15:32:12.166Z,5.80
2023-01-04T15:37:23.946Z,5.90
2023-01-04T15:42:47.906Z,6.00
2023-01-04T15:47:55.419Z,6.00
2023-01-04T15:53:04.600Z,6.10
2023-01-04T15:58:14.313Z,6.10
2023-01-04T16:03:21.171Z,6.20
2023-01-04T16:08:35.546Z,6.10
2023-01-04T16:25:12.793Z,6.30
2023-01-04T16:30:38.297Z,6.30
2023-01-04T16:36:17.163Z,6.40
2023-01-04T16:41:28.095Z,6.50
2023-01-04T16:46:54.260Z,6.40
2023-01-04T16:52:01.255Z,6.50
2023-01-04T16:57:30.784Z,6.50
2023-01-04T17:02:39.481Z,6.50
2023-01-04T17:07:46.617Z,6.60
2023-01-04T17:12:51.921Z,6.60
2023-01-04T17:18:10.432Z,6.60
2023-01-04T17:23:39.193Z,6.70
2023-01-04T17:28:50.193Z,6.80
2023-01-04T17:33:57.537Z,6.80
2023-01-04T17:39:07.348Z,6.80
2023-01-04T17:44:37.311Z,6.90
2023-01-04T18:00:48.532Z,7.00
2023-01-04T18:06:24.942Z,7.00
2023-01-04T18:22:58.464Z,7.20
2023-01-04T18:28:05.123Z,7.20
2023-01-04T18:33:13.747Z,7.30
2023-01-04T18:38:22.864Z,7.30
2023-01-04T18:44:13.094Z,7.30
2023-01-04T18:54:36.059Z,7.40
2023-01-04T18:59:48.931Z,7.50
2023-01-04T19:05:03.516Z,7.60
2023-01-04T19:21:34.697Z,7.70
2023-01-04T19:26:43.062Z,7.70
2023-01-04T19:38:10.583Z,7.70
2023-01-04T19:43:37.162Z,7.70
2023-01-04T19:48:47.149Z,7.70
2023-01-04T19:53:53.635Z,7.70
2023-01-04T19:59:07.821Z,7.80
2023-01-04T20:10:14.398Z,7.80
2023-01-04T20:15:36.563Z,7.80
2023-01-04T20:20:59.592Z,7.80
2023-01-04T20:26:36.485Z,7.80
2023-01-04T20:31:51.091Z,7.80
2023-01-04T20:37:02.091Z,7.90
2023-01-04T20:42:58.865Z,7.90
2023-01-04T20:48:05.353Z,8.00
2023-01-04T20:53:19.131Z,8.00
2023-01-04T20:58:34.988Z,8.00
2023-01-04T21:04:01.187Z,8.00
2023-01-04T21:09:14.556Z,8.00
2023-01-04T21:20:10.838Z,8.00
2023-01-04T21:25:24.057Z,8.00
2023-01-04T21:36:27.967Z,8.10
2023-01-04T21:41:47.814Z,8.10
2023-01-04T21:47:02.049Z,8.10
2023-01-04T21:52:11.001Z,8.10
2023-01-04T22:03:04.421Z,8.20
2023-01-04T22:08:32.361Z,8.30
2023-01-04T22:14:15.498Z,8.30
2023-01-04T22:20:02.457Z,8.30
2023-01-04T22:25:18.087Z,8.40
2023-01-04T22:30:30.581Z,8.50
2023-01-04T22:36:02.304Z,8.60
2023-01-04T22:58:15.865Z,8.60
2023-01-04T23:03:25.311Z,8.70
2023-01-04T23:08:32.079Z,8.70
2023-01-04T23:13:39.624Z,8.60
2023-01-04T23:18:54.093Z,8.60
2023-01-04T23:29:33.299Z,8.70
2023-01-04T23:47:13.241Z,8.70
